Terminal Aerodrome Forecast
Issued by NWS North Platte, NE

Home | Current Version | Previous Version | Text Only | Print | Product List | Glossary On
Versions: 1 2 3 4 5 6 7 8 9 10 11 12 13 14 15 16
368
FTUS43 KLBF 240520
TAFVTN
TAF
KVTN 240520Z 2406/2506 14005KT P6SM BKN090
     FM240900 14004KT P6SM VCSH OVC050
     FM241100 14005KT 6SM -SN OVC045
     FM241300 14005KT 1SM -SN OVC025
     FM241800 20006KT P6SM OVC015
     FM242000 27008KT P6SM BKN015
     FM242300 30009KT P6SM BKN120
     FM250400 27008KT P6SM FEW250=

USA.gov is the U.S. government's official web portal to all federal, state and local government web resources and services.